sensor_id;sensor_type;location;lat;lon;timestamp;P1;durP1;ratioP1;P2;durP2;ratioP2
15553;SDS011;7878;44.632;10.942;2023-02-23T00:01:37;124.87;;;76.73;;
15553;SDS011;7878;44.632;10.942;2023-02-23T00:04:04;126.40;;;75.53;;
15553;SDS011;7878;44.632;10.942;2023-02-23T00:06:30;125.13;;;77.23;;
15553;SDS011;7878;44.632;10.942;2023-02-23T00:08:57;121.67;;;75.17;;
15553;SDS011;7878;44.632;10.942;2023-02-23T00:11:25;131.53;;;76.40;;
15553;SDS011;7878;44.632;10.942;2023-02-23T00:13:52;127.47;;;74.50;;
15553;SDS011;7878;44.632;10.942;2023-02-23T00:16:21;122.27;;;74.27;;
15553;SDS011;7878;44.632;10.942;2023-02-23T00:21:23;126.77;;;76.20;;
15553;SDS011;7878;44.632;10.942;2023-02-23T00:24:06;132.97;;;77.20;;
15553;SDS011;7878;44.632;10.942;2023-02-23T00:26:33;127.17;;;74.00;;
15553;SDS011;7878;44.632;10.942;2023-02-23T00:29:02;119.13;;;74.00;;
15553;SDS011;7878;44.632;10.942;2023-02-23T00:31:29;123.77;;;74.63;;
15553;SDS011;7878;44.632;10.942;2023-02-23T00:33:56;127.07;;;75.60;;
15553;SDS011;7878;44.632;10.942;2023-02-23T00:36:25;123.50;;;74.17;;
15553;SDS011;7878;44.632;10.942;2023-02-23T00:38:53;122.80;;;74.87;;
15553;SDS011;7878;44.632;10.942;2023-02-23T00:41:20;133.03;;;75.47;;
15553;SDS011;7878;44.632;10.942;2023-02-23T00:43:55;128.23;;;75.70;;
15553;SDS011;7878;44.632;10.942;2023-02-23T00:46:22;124.77;;;74.80;;
15553;SDS011;7878;44.632;10.942;2023-02-23T00:48:53;121.80;;;73.90;;
15553;SDS011;7878;44.632;10.942;2023-02-23T00:51:20;130.77;;;75.90;;
15553;SDS011;7878;44.632;10.942;2023-02-23T00:53:47;128.63;;;75.90;;
15553;SDS011;7878;44.632;10.942;2023-02-23T00:56:14;126.10;;;74.50;;
15553;SDS011;7878;44.632;10.942;2023-02-23T00:58:40;132.50;;;76.60;;
15553;SDS011;7878;44.632;10.942;2023-02-23T01:01:07;124.67;;;74.20;;
15553;SDS011;7878;44.632;10.942;2023-02-23T01:03:34;126.70;;;74.37;;
15553;SDS011;7878;44.632;10.942;2023-02-23T01:06:01;125.17;;;73.80;;
15553;SDS011;7878;44.632;10.942;2023-02-23T01:08:30;125.00;;;73.50;;
15553;SDS011;7878;44.632;10.942;2023-02-23T01:10:56;120.93;;;69.97;;
15553;SDS011;7878;44.632;10.942;2023-02-23T01:13:23;121.43;;;71.37;;
15553;SDS011;7878;44.632;10.942;2023-02-23T01:15:50;126.43;;;73.63;;
15553;SDS011;7878;44.632;10.942;2023-02-23T01:18:17;119.00;;;71.63;;
15553;SDS011;7878;44.632;10.942;2023-02-23T01:20:45;118.43;;;70.67;;
15553;SDS011;7878;44.632;10.942;2023-02-23T01:23:11;117.70;;;72.90;;
15553;SDS011;7878;44.632;10.942;2023-02-23T01:25:38;118.20;;;70.63;;
15553;SDS011;7878;44.632;10.942;2023-02-23T01:28:07;116.60;;;72.30;;
15553;SDS011;7878;44.632;10.942;2023-02-23T01:30:36;121.77;;;70.07;;
15553;SDS011;7878;44.632;10.942;2023-02-23T01:33:03;122.87;;;71.17;;
15553;SDS011;7878;44.632;10.942;2023-02-23T01:35:29;120.30;;;69.77;;
15553;SDS011;7878;44.632;10.942;2023-02-23T01:37:55;116.83;;;68.27;;
15553;SDS011;7878;44.632;10.942;2023-02-23T01:40:22;113.57;;;68.23;;
15553;SDS011;7878;44.632;10.942;2023-02-23T01:42:56;122.57;;;68.37;;
15553;SDS011;7878;44.632;10.942;2023-02-23T01:45:45;119.20;;;70.73;;
15553;SDS011;7878;44.632;10.942;2023-02-23T01:48:15;122.13;;;71.07;;
15553;SDS011;7878;44.632;10.942;2023-02-23T01:50:49;119.13;;;70.77;;
15553;SDS011;7878;44.632;10.942;2023-02-23T01:53:21;124.80;;;70.83;;
15553;SDS011;7878;44.632;10.942;2023-02-23T01:55:49;119.50;;;68.73;;
15553;SDS011;7878;44.632;10.942;2023-02-23T01:58:19;118.70;;;69.73;;
15553;SDS011;7878;44.632;10.942;2023-02-23T02:00:49;123.47;;;70.00;;
15553;SDS011;7878;44.632;10.942;2023-02-23T02:03:22;117.13;;;70.50;;
15553;SDS011;7878;44.632;10.942;2023-02-23T02:05:53;119.50;;;67.70;;
15553;SDS011;7878;44.632;10.942;2023-02-23T02:08:20;116.70;;;68.53;;
15553;SDS011;7878;44.632;10.942;2023-02-23T02:10:48;118.37;;;69.70;;
15553;SDS011;7878;44.632;10.942;2023-02-23T02:13:20;114.20;;;68.73;;
15553;SDS011;7878;44.632;10.942;2023-02-23T02:26:21;116.97;;;69.50;;
15553;SDS011;7878;44.632;10.942;2023-02-23T02:46:40;107.37;;;67.87;;
15553;SDS011;7878;44.632;10.942;2023-02-23T02:49:05;115.97;;;69.27;;
15553;SDS011;7878;44.632;10.942;2023-02-23T02:51:50;114.57;;;68.20;;
15553;SDS011;7878;44.632;10.942;2023-02-23T02:54:28;115.83;;;70.27;;
15553;SDS011;7878;44.632;10.942;2023-02-23T02:57:02;117.23;;;68.60;;
15553;SDS011;7878;44.632;10.942;2023-02-23T02:59:28;114.47;;;69.77;;
15553;SDS011;7878;44.632;10.942;2023-02-23T03:02:14;113.93;;;69.57;;
15553;SDS011;7878;44.632;10.942;2023-02-23T03:05:01;121.17;;;69.13;;
15553;SDS011;7878;44.632;10.942;2023-02-23T03:10:45;114.80;;;68.70;;
15553;SDS011;7878;44.632;10.942;2023-02-23T03:23:15;113.00;;;69.87;;
15553;SDS011;7878;44.632;10.942;2023-02-23T03:26:05;119.50;;;70.53;;
15553;SDS011;7878;44.632;10.942;2023-02-23T03:32:25;119.47;;;69.23;;
15553;SDS011;7878;44.632;10.942;2023-02-23T03:35:17;117.20;;;69.67;;
15553;SDS011;7878;44.632;10.942;2023-02-23T03:38:11;113.73;;;69.40;;
15553;SDS011;7878;44.632;10.942;2023-02-23T03:41:08;115.03;;;68.83;;
15553;SDS011;7878;44.632;10.942;2023-02-23T03:43:57;113.43;;;68.77;;
15553;SDS011;7878;44.632;10.942;2023-02-23T03:46:46;119.00;;;70.07;;
15553;SDS011;7878;44.632;10.942;2023-02-23T03:49:35;122.67;;;69.80;;
15553;SDS011;7878;44.632;10.942;2023-02-23T03:52:24;109.70;;;68.83;;
15553;SDS011;7878;44.632;10.942;2023-02-23T03:55:24;113.10;;;68.73;;
15553;SDS011;7878;44.632;10.942;2023-02-23T03:58:14;113.17;;;70.20;;
15553;SDS011;7878;44.632;10.942;2023-02-23T04:01:02;115.50;;;69.57;;
15553;SDS011;7878;44.632;10.942;2023-02-23T04:03:48;114.13;;;71.40;;
15553;SDS011;7878;44.632;10.942;2023-02-23T04:06:39;120.80;;;70.97;;
15553;SDS011;7878;44.632;10.942;2023-02-23T04:09:26;121.50;;;73.93;;
15553;SDS011;7878;44.632;10.942;2023-02-23T04:12:12;134.27;;;76.93;;
15553;SDS011;7878;44.632;10.942;2023-02-23T04:17:44;121.40;;;76.03;;
15553;SDS011;7878;44.632;10.942;2023-02-23T04:20:11;116.40;;;72.27;;
15553;SDS011;7878;44.632;10.942;2023-02-23T04:22:37;125.27;;;74.37;;
15553;SDS011;7878;44.632;10.942;2023-02-23T04:25:03;129.97;;;73.13;;
15553;SDS011;7878;44.632;10.942;2023-02-23T04:27:33;121.93;;;74.47;;
15553;SDS011;7878;44.632;10.942;2023-02-23T04:29:59;126.93;;;73.43;;
15553;SDS011;7878;44.632;10.942;2023-02-23T04:32:27;121.17;;;74.30;;
15553;SDS011;7878;44.632;10.942;2023-02-23T04:34:53;120.63;;;74.70;;
15553;SDS011;7878;44.632;10.942;2023-02-23T04:37:19;127.03;;;76.37;;
15553;SDS011;7878;44.632;10.942;2023-02-23T04:39:44;124.83;;;75.90;;
15553;SDS011;7878;44.632;10.942;2023-02-23T04:42:13;131.73;;;77.80;;
15553;SDS011;7878;44.632;10.942;2023-02-23T04:44:40;135.97;;;77.87;;
15553;SDS011;7878;44.632;10.942;2023-02-23T04:47:06;130.13;;;78.23;;
15553;SDS011;7878;44.632;10.942;2023-02-23T04:49:31;130.53;;;80.63;;
15553;SDS011;7878;44.632;10.942;2023-02-23T04:51:57;128.60;;;76.57;;
15553;SDS011;7878;44.632;10.942;2023-02-23T04:54:23;132.53;;;79.93;;
15553;SDS011;7878;44.632;10.942;2023-02-23T04:56:49;134.73;;;80.53;;
15553;SDS011;7878;44.632;10.942;2023-02-23T04:59:14;136.57;;;79.33;;
15553;SDS011;7878;44.632;10.942;2023-02-23T05:01:40;127.47;;;80.10;;
15553;SDS011;7878;44.632;10.942;2023-02-23T05:04:05;130.67;;;78.27;;
15553;SDS011;7878;44.632;10.942;2023-02-23T05:06:31;135.00;;;80.77;;
15553;SDS011;7878;44.632;10.942;2023-02-23T05:08:58;137.80;;;79.93;;
15553;SDS011;7878;44.632;10.942;2023-02-23T05:11:23;131.73;;;78.87;;
15553;SDS011;7878;44.632;10.942;2023-02-23T05:13:50;137.70;;;79.97;;
15553;SDS011;7878;44.632;10.942;2023-02-23T05:16:16;135.03;;;78.20;;
15553;SDS011;7878;44.632;10.942;2023-02-23T05:18:42;138.10;;;80.03;;
15553;SDS011;7878;44.632;10.942;2023-02-23T05:21:08;143.53;;;81.87;;
15553;SDS011;7878;44.632;10.942;2023-02-23T05:23:35;135.67;;;79.63;;
15553;SDS011;7878;44.632;10.942;2023-02-23T05:26:03;142.43;;;80.30;;
15553;SDS011;7878;44.632;10.942;2023-02-23T05:28:32;139.43;;;80.03;;
15553;SDS011;7878;44.632;10.942;2023-02-23T05:30:59;142.03;;;81.53;;
15553;SDS011;7878;44.632;10.942;2023-02-23T05:33:25;140.27;;;82.23;;
15553;SDS011;7878;44.632;10.942;2023-02-23T05:35:51;143.80;;;81.57;;
15553;SDS011;7878;44.632;10.942;2023-02-23T05:38:16;144.10;;;82.47;;
15553;SDS011;7878;44.632;10.942;2023-02-23T05:40:43;133.67;;;81.70;;
15553;SDS011;7878;44.632;10.942;2023-02-23T05:43:09;141.30;;;84.10;;
15553;SDS011;7878;44.632;10.942;2023-02-23T05:45:38;144.27;;;82.93;;
15553;SDS011;7878;44.632;10.942;2023-02-23T05:48:05;141.87;;;84.50;;
15553;SDS011;7878;44.632;10.942;2023-02-23T05:50:32;142.60;;;84.83;;
15553;SDS011;7878;44.632;10.942;2023-02-23T05:52:57;140.30;;;83.87;;
15553;SDS011;7878;44.632;10.942;2023-02-23T05:55:23;146.10;;;84.87;;
15553;SDS011;7878;44.632;10.942;2023-02-23T05:57:49;137.00;;;80.60;;
15553;SDS011;7878;44.632;10.942;2023-02-23T06:00:15;148.13;;;82.77;;
15553;SDS011;7878;44.632;10.942;2023-02-23T06:02:42;137.47;;;80.63;;
15553;SDS011;7878;44.632;10.942;2023-02-23T06:05:08;137.63;;;80.57;;
15553;SDS011;7878;44.632;10.942;2023-02-23T06:07:35;139.63;;;81.83;;
15553;SDS011;7878;44.632;10.942;2023-02-23T06:10:01;153.23;;;85.27;;
15553;SDS011;7878;44.632;10.942;2023-02-23T06:12:27;143.20;;;84.40;;
15553;SDS011;7878;44.632;10.942;2023-02-23T06:14:53;148.73;;;85.23;;
15553;SDS011;7878;44.632;10.942;2023-02-23T06:17:19;142.30;;;83.73;;
15553;SDS011;7878;44.632;10.942;2023-02-23T06:19:44;139.70;;;84.20;;
15553;SDS011;7878;44.632;10.942;2023-02-23T06:22:10;149.20;;;86.93;;
15553;SDS011;7878;44.632;10.942;2023-02-23T06:24:36;143.40;;;88.13;;
15553;SDS011;7878;44.632;10.942;2023-02-23T06:27:02;147.90;;;86.00;;
15553;SDS011;7878;44.632;10.942;2023-02-23T06:29:28;153.33;;;86.63;;
15553;SDS011;7878;44.632;10.942;2023-02-23T06:31:53;149.47;;;85.10;;
15553;SDS011;7878;44.632;10.942;2023-02-23T06:34:19;152.97;;;87.67;;
15553;SDS011;7878;44.632;10.942;2023-02-23T06:36:45;153.10;;;89.00;;
15553;SDS011;7878;44.632;10.942;2023-02-23T06:39:10;147.57;;;87.50;;
15553;SDS011;7878;44.632;10.942;2023-02-23T06:41:36;150.53;;;86.27;;
15553;SDS011;7878;44.632;10.942;2023-02-23T06:44:02;153.00;;;86.93;;
15553;SDS011;7878;44.632;10.942;2023-02-23T06:46:28;149.97;;;87.77;;
15553;SDS011;7878;44.632;10.942;2023-02-23T06:48:54;146.17;;;85.23;;
15553;SDS011;7878;44.632;10.942;2023-02-23T06:51:21;151.07;;;87.57;;
15553;SDS011;7878;44.632;10.942;2023-02-23T06:53:47;157.13;;;84.17;;
15553;SDS011;7878;44.632;10.942;2023-02-23T06:56:12;155.07;;;85.63;;
15553;SDS011;7878;44.632;10.942;2023-02-23T06:58:41;148.93;;;87.27;;
15553;SDS011;7878;44.632;10.942;2023-02-23T07:01:07;142.83;;;84.80;;
15553;SDS011;7878;44.632;10.942;2023-02-23T07:03:34;146.50;;;85.37;;
15553;SDS011;7878;44.632;10.942;2023-02-23T07:05:59;146.10;;;85.83;;
15553;SDS011;7878;44.632;10.942;2023-02-23T07:08:25;151.93;;;85.43;;
15553;SDS011;7878;44.632;10.942;2023-02-23T07:10:51;151.10;;;85.93;;
15553;SDS011;7878;44.632;10.942;2023-02-23T07:13:17;151.33;;;85.13;;
15553;SDS011;7878;44.632;10.942;2023-02-23T07:15:44;148.30;;;84.20;;
15553;SDS011;7878;44.632;10.942;2023-02-23T07:18:10;156.20;;;87.07;;
15553;SDS011;7878;44.632;10.942;2023-02-23T07:20:35;146.50;;;86.00;;
15553;SDS011;7878;44.632;10.942;2023-02-23T07:23:01;137.40;;;85.47;;
15553;SDS011;7878;44.632;10.942;2023-02-23T07:25:27;148.83;;;85.90;;
15553;SDS011;7878;44.632;10.942;2023-02-23T07:27:53;143.80;;;85.47;;
15553;SDS011;7878;44.632;10.942;2023-02-23T07:30:20;142.33;;;84.00;;
15553;SDS011;7878;44.632;10.942;2023-02-23T07:32:52;152.73;;;88.17;;
15553;SDS011;7878;44.632;10.942;2023-02-23T07:35:18;142.23;;;84.13;;
15553;SDS011;7878;44.632;10.942;2023-02-23T07:37:44;153.27;;;84.07;;
15553;SDS011;7878;44.632;10.942;2023-02-23T07:40:10;145.57;;;85.27;;
15553;SDS011;7878;44.632;10.942;2023-02-23T07:42:36;150.00;;;84.70;;
15553;SDS011;7878;44.632;10.942;2023-02-23T07:45:02;147.50;;;85.73;;
15553;SDS011;7878;44.632;10.942;2023-02-23T07:47:28;149.17;;;84.80;;
15553;SDS011;7878;44.632;10.942;2023-02-23T07:49:58;147.33;;;85.57;;
15553;SDS011;7878;44.632;10.942;2023-02-23T07:52:26;139.53;;;83.60;;
15553;SDS011;7878;44.632;10.942;2023-02-23T07:54:52;134.00;;;81.70;;
15553;SDS011;7878;44.632;10.942;2023-02-23T07:57:18;141.47;;;83.40;;
15553;SDS011;7878;44.632;10.942;2023-02-23T07:59:45;131.17;;;81.53;;
15553;SDS011;7878;44.632;10.942;2023-02-23T08:02:11;136.40;;;81.60;;
15553;SDS011;7878;44.632;10.942;2023-02-23T08:04:38;133.17;;;82.20;;
15553;SDS011;7878;44.632;10.942;2023-02-23T08:07:04;133.83;;;82.97;;
15553;SDS011;7878;44.632;10.942;2023-02-23T08:09:31;130.27;;;81.17;;
15553;SDS011;7878;44.632;10.942;2023-02-23T08:11:59;137.37;;;82.73;;
15553;SDS011;7878;44.632;10.942;2023-02-23T08:14:25;146.77;;;85.83;;
15553;SDS011;7878;44.632;10.942;2023-02-23T08:16:51;140.60;;;84.63;;
15553;SDS011;7878;44.632;10.942;2023-02-23T08:19:16;133.93;;;85.53;;
15553;SDS011;7878;44.632;10.942;2023-02-23T08:21:42;141.10;;;85.40;;
15553;SDS011;7878;44.632;10.942;2023-02-23T08:24:08;138.37;;;84.90;;
15553;SDS011;7878;44.632;10.942;2023-02-23T08:26:35;141.80;;;85.13;;
15553;SDS011;7878;44.632;10.942;2023-02-23T08:29:04;134.93;;;82.47;;
15553;SDS011;7878;44.632;10.942;2023-02-23T08:31:29;135.50;;;84.27;;
15553;SDS011;7878;44.632;10.942;2023-02-23T08:33:55;133.63;;;83.43;;
15553;SDS011;7878;44.632;10.942;2023-02-23T08:36:21;134.50;;;84.33;;
15553;SDS011;7878;44.632;10.942;2023-02-23T08:38:47;137.90;;;84.70;;
15553;SDS011;7878;44.632;10.942;2023-02-23T08:41:13;128.93;;;84.17;;
15553;SDS011;7878;44.632;10.942;2023-02-23T08:43:38;137.17;;;82.27;;
15553;SDS011;7878;44.632;10.942;2023-02-23T08:46:04;130.80;;;80.53;;
15553;SDS011;7878;44.632;10.942;2023-02-23T08:48:31;130.43;;;81.80;;
15553;SDS011;7878;44.632;10.942;2023-02-23T08:50:57;125.93;;;81.57;;
15553;SDS011;7878;44.632;10.942;2023-02-23T08:53:24;129.47;;;81.33;;
15553;SDS011;7878;44.632;10.942;2023-02-23T08:56:09;130.17;;;82.03;;
15553;SDS011;7878;44.632;10.942;2023-02-23T08:58:36;127.20;;;81.77;;
15553;SDS011;7878;44.632;10.942;2023-02-23T09:01:02;128.47;;;82.13;;
15553;SDS011;7878;44.632;10.942;2023-02-23T09:03:28;127.73;;;81.70;;
15553;SDS011;7878;44.632;10.942;2023-02-23T09:05:55;133.77;;;83.13;;
15553;SDS011;7878;44.632;10.942;2023-02-23T09:08:31;134.80;;;84.13;;
15553;SDS011;7878;44.632;10.942;2023-02-23T09:10:56;128.23;;;83.27;;
15553;SDS011;7878;44.632;10.942;2023-02-23T09:13:22;124.03;;;81.27;;
15553;SDS011;7878;44.632;10.942;2023-02-23T09:15:47;131.17;;;83.50;;
15553;SDS011;7878;44.632;10.942;2023-02-23T09:18:13;125.57;;;84.53;;
15553;SDS011;7878;44.632;10.942;2023-02-23T09:20:43;131.67;;;83.37;;
15553;SDS011;7878;44.632;10.942;2023-02-23T09:23:10;127.97;;;83.33;;
15553;SDS011;7878;44.632;10.942;2023-02-23T09:25:39;134.27;;;85.37;;
15553;SDS011;7878;44.632;10.942;2023-02-23T09:28:08;121.17;;;82.50;;
15553;SDS011;7878;44.632;10.942;2023-02-23T09:30:38;133.87;;;83.50;;
15553;SDS011;7878;44.632;10.942;2023-02-23T09:33:05;122.50;;;78.13;;
15553;SDS011;7878;44.632;10.942;2023-02-23T09:35:32;128.13;;;82.03;;
15553;SDS011;7878;44.632;10.942;2023-02-23T09:37:58;121.27;;;78.80;;
15553;SDS011;7878;44.632;10.942;2023-02-23T09:40:25;119.13;;;79.53;;
15553;SDS011;7878;44.632;10.942;2023-02-23T09:43:08;126.63;;;82.73;;
15553;SDS011;7878;44.632;10.942;2023-02-23T09:48:24;135.27;;;83.63;;
15553;SDS011;7878;44.632;10.942;2023-02-23T09:50:52;129.87;;;85.43;;
15553;SDS011;7878;44.632;10.942;2023-02-23T09:55:45;129.20;;;81.43;;
15553;SDS011;7878;44.632;10.942;2023-02-23T09:58:23;127.73;;;83.30;;
15553;SDS011;7878;44.632;10.942;2023-02-23T10:03:40;132.93;;;83.53;;
15553;SDS011;7878;44.632;10.942;2023-02-23T10:06:17;124.93;;;83.17;;
15553;SDS011;7878;44.632;10.942;2023-02-23T10:11:23;136.80;;;85.33;;
15553;SDS011;7878;44.632;10.942;2023-02-23T10:22:25;126.97;;;80.20;;
15553;SDS011;7878;44.632;10.942;2023-02-23T10:24:56;120.87;;;78.60;;
15553;SDS011;7878;44.632;10.942;2023-02-23T10:27:40;123.53;;;80.47;;
15553;SDS011;7878;44.632;10.942;2023-02-23T10:30:15;127.43;;;82.37;;
15553;SDS011;7878;44.632;10.942;2023-02-23T10:32:52;131.03;;;82.50;;
15553;SDS011;7878;44.632;10.942;2023-02-23T10:35:40;127.07;;;84.27;;
15553;SDS011;7878;44.632;10.942;2023-02-23T10:38:07;131.33;;;83.77;;
15553;SDS011;7878;44.632;10.942;2023-02-23T10:40:43;114.60;;;73.73;;
15553;SDS011;7878;44.632;10.942;2023-02-23T10:43:13;130.67;;;82.50;;
15553;SDS011;7878;44.632;10.942;2023-02-23T10:45:43;130.47;;;83.57;;
15553;SDS011;7878;44.632;10.942;2023-02-23T10:48:18;121.40;;;77.93;;
15553;SDS011;7878;44.632;10.942;2023-02-23T10:50:49;119.43;;;78.43;;
15553;SDS011;7878;44.632;10.942;2023-02-23T10:53:22;105.13;;;68.03;;
15553;SDS011;7878;44.632;10.942;2023-02-23T10:56:06;94.20;;;56.93;;
15553;SDS011;7878;44.632;10.942;2023-02-23T10:58:54;104.73;;;66.40;;
15553;SDS011;7878;44.632;10.942;2023-02-23T11:04:11;77.50;;;50.03;;
15553;SDS011;7878;44.632;10.942;2023-02-23T11:06:42;80.57;;;52.53;;
15553;SDS011;7878;44.632;10.942;2023-02-23T11:11:58;86.77;;;53.73;;
15553;SDS011;7878;44.632;10.942;2023-02-23T11:14:27;89.13;;;57.87;;
15553;SDS011;7878;44.632;10.942;2023-02-23T11:16:54;94.47;;;62.50;;
15553;SDS011;7878;44.632;10.942;2023-02-23T11:19:42;97.03;;;60.77;;
15553;SDS011;7878;44.632;10.942;2023-02-23T11:22:15;94.77;;;60.17;;
15553;SDS011;7878;44.632;10.942;2023-02-23T11:24:51;97.03;;;64.93;;
15553;SDS011;7878;44.632;10.942;2023-02-23T11:27:19;97.13;;;60.83;;
15553;SDS011;7878;44.632;10.942;2023-02-23T11:29:48;78.90;;;52.50;;
15553;SDS011;7878;44.632;10.942;2023-02-23T11:32:35;88.53;;;55.67;;
15553;SDS011;7878;44.632;10.942;2023-02-23T11:37:47;91.93;;;56.63;;
15553;SDS011;7878;44.632;10.942;2023-02-23T11:40:18;92.60;;;57.23;;
15553;SDS011;7878;44.632;10.942;2023-02-23T11:43:33;86.50;;;52.00;;
15553;SDS011;7878;44.632;10.942;2023-02-23T11:45:47;74.67;;;51.13;;
15553;SDS011;7878;44.632;10.942;2023-02-23T11:48:24;82.70;;;50.70;;
15553;SDS011;7878;44.632;10.942;2023-02-23T11:50:51;79.50;;;54.03;;
15553;SDS011;7878;44.632;10.942;2023-02-23T11:53:20;87.33;;;52.60;;
15553;SDS011;7878;44.632;10.942;2023-02-23T11:55:52;80.60;;;51.53;;
15553;SDS011;7878;44.632;10.942;2023-02-23T12:00:59;85.00;;;52.47;;
15553;SDS011;7878;44.632;10.942;2023-02-23T12:03:28;72.90;;;50.40;;
15553;SDS011;7878;44.632;10.942;2023-02-23T12:05:57;80.80;;;52.93;;
15553;SDS011;7878;44.632;10.942;2023-02-23T12:09:05;82.97;;;54.40;;
15553;SDS011;7878;44.632;10.942;2023-02-23T12:11:18;85.90;;;54.85;;
15553;SDS011;7878;44.632;10.942;2023-02-23T12:13:59;85.93;;;54.20;;
15553;SDS011;7878;44.632;10.942;2023-02-23T12:17:13;79.63;;;51.00;;
15553;SDS011;7878;44.632;10.942;2023-02-23T12:19:32;74.33;;;50.13;;
15553;SDS011;7878;44.632;10.942;2023-02-23T12:22:14;81.90;;;54.80;;
15553;SDS011;7878;44.632;10.942;2023-02-23T12:24:51;79.97;;;50.67;;
15553;SDS011;7878;44.632;10.942;2023-02-23T12:41:00;64.10;;;44.15;;
15553;SDS011;7878;44.632;10.942;2023-02-23T12:43:38;70.00;;;43.90;;
15553;SDS011;7878;44.632;10.942;2023-02-23T12:49:26;57.53;;;39.67;;
15553;SDS011;7878;44.632;10.942;2023-02-23T12:51:59;56.53;;;37.50;;
15553;SDS011;7878;44.632;10.942;2023-02-23T12:54:44;50.08;;;33.50;;
15553;SDS011;7878;44.632;10.942;2023-02-23T13:05:37;59.37;;;38.87;;
15553;SDS011;7878;44.632;10.942;2023-02-23T13:14:13;57.70;;;39.50;;
15553;SDS011;7878;44.632;10.942;2023-02-23T13:16:48;56.40;;;37.28;;
15553;SDS011;7878;44.632;10.942;2023-02-23T13:19:23;56.38;;;38.38;;
15553;SDS011;7878;44.632;10.942;2023-02-23T13:25:04;59.23;;;38.37;;
15553;SDS011;7878;44.632;10.942;2023-02-23T13:27:42;50.03;;;36.72;;
15553;SDS011;7878;44.632;10.942;2023-02-23T13:30:16;55.03;;;36.85;;
15553;SDS011;7878;44.632;10.942;2023-02-23T13:32:44;54.13;;;35.78;;
15553;SDS011;7878;44.632;10.942;2023-02-23T13:35:14;60.72;;;37.65;;
15553;SDS011;7878;44.632;10.942;2023-02-23T13:40:47;54.50;;;35.58;;
15553;SDS011;7878;44.632;10.942;2023-02-23T13:43:45;48.17;;;33.05;;
15553;SDS011;7878;44.632;10.942;2023-02-23T13:48:52;50.40;;;34.05;;
15553;SDS011;7878;44.632;10.942;2023-02-23T13:56:43;52.67;;;34.78;;
15553;SDS011;7878;44.632;10.942;2023-02-23T13:59:17;52.17;;;33.50;;
15553;SDS011;7878;44.632;10.942;2023-02-23T14:01:49;58.80;;;35.30;;
15553;SDS011;7878;44.632;10.942;2023-02-23T14:04:23;51.17;;;34.17;;
15553;SDS011;7878;44.632;10.942;2023-02-23T14:06:59;52.25;;;35.55;;
15553;SDS011;7878;44.632;10.942;2023-02-23T14:09:46;60.85;;;36.05;;
15553;SDS011;7878;44.632;10.942;2023-02-23T14:12:31;60.83;;;35.72;;
15553;SDS011;7878;44.632;10.942;2023-02-23T14:17:57;54.45;;;35.65;;
15553;SDS011;7878;44.632;10.942;2023-02-23T14:26:08;53.85;;;35.10;;
15553;SDS011;7878;44.632;10.942;2023-02-23T14:41:27;55.90;;;36.87;;
15553;SDS011;7878;44.632;10.942;2023-02-23T14:47:02;53.03;;;35.77;;
15553;SDS011;7878;44.632;10.942;2023-02-23T14:49:32;56.83;;;36.53;;
15553;SDS011;7878;44.632;10.942;2023-02-23T14:54:50;50.73;;;35.73;;
15553;SDS011;7878;44.632;10.942;2023-02-23T14:57:18;52.23;;;37.07;;
15553;SDS011;7878;44.632;10.942;2023-02-23T14:59:58;55.23;;;36.97;;
15553;SDS011;7878;44.632;10.942;2023-02-23T15:02:27;53.47;;;37.40;;
15553;SDS011;7878;44.632;10.942;2023-02-23T15:04:53;54.83;;;36.63;;
15553;SDS011;7878;44.632;10.942;2023-02-23T15:07:34;57.37;;;36.40;;
15553;SDS011;7878;44.632;10.942;2023-02-23T15:10:07;53.00;;;36.10;;
15553;SDS011;7878;44.632;10.942;2023-02-23T15:12:36;51.30;;;34.57;;
15553;SDS011;7878;44.632;10.942;2023-02-23T15:15:04;50.13;;;34.73;;
15553;SDS011;7878;44.632;10.942;2023-02-23T15:17:36;53.43;;;36.00;;
15553;SDS011;7878;44.632;10.942;2023-02-23T15:20:05;54.27;;;35.23;;
15553;SDS011;7878;44.632;10.942;2023-02-23T15:22:36;49.30;;;34.60;;
15553;SDS011;7878;44.632;10.942;2023-02-23T15:25:10;52.37;;;34.67;;
15553;SDS011;7878;44.632;10.942;2023-02-23T15:27:46;57.47;;;35.83;;
15553;SDS011;7878;44.632;10.942;2023-02-23T15:30:29;58.97;;;35.77;;
15553;SDS011;7878;44.632;10.942;2023-02-23T15:33:03;51.43;;;35.17;;
15553;SDS011;7878;44.632;10.942;2023-02-23T15:35:38;52.70;;;34.87;;
15553;SDS011;7878;44.632;10.942;2023-02-23T15:38:10;55.97;;;36.33;;
15553;SDS011;7878;44.632;10.942;2023-02-23T15:40:42;59.67;;;36.83;;
15553;SDS011;7878;44.632;10.942;2023-02-23T15:43:08;53.33;;;35.13;;
15553;SDS011;7878;44.632;10.942;2023-02-23T15:45:39;54.87;;;35.80;;
15553;SDS011;7878;44.632;10.942;2023-02-23T15:48:13;59.40;;;35.17;;
15553;SDS011;7878;44.632;10.942;2023-02-23T15:50:53;55.00;;;33.93;;
15553;SDS011;7878;44.632;10.942;2023-02-23T15:55:52;54.53;;;35.03;;
15553;SDS011;7878;44.632;10.942;2023-02-23T15:58:25;51.13;;;34.43;;
15553;SDS011;7878;44.632;10.942;2023-02-23T16:00:55;56.87;;;34.97;;
15553;SDS011;7878;44.632;10.942;2023-02-23T16:03:33;53.13;;;35.37;;
15553;SDS011;7878;44.632;10.942;2023-02-23T16:06:02;48.13;;;35.20;;
15553;SDS011;7878;44.632;10.942;2023-02-23T16:08:30;59.33;;;35.97;;
15553;SDS011;7878;44.632;10.942;2023-02-23T16:11:07;57.97;;;36.83;;
15553;SDS011;7878;44.632;10.942;2023-02-23T16:13:36;64.30;;;36.90;;
15553;SDS011;7878;44.632;10.942;2023-02-23T16:16:06;49.57;;;34.30;;
15553;SDS011;7878;44.632;10.942;2023-02-23T16:18:38;55.20;;;36.47;;
15553;SDS011;7878;44.632;10.942;2023-02-23T16:21:06;52.37;;;35.33;;
15553;SDS011;7878;44.632;10.942;2023-02-23T16:23:46;61.00;;;37.50;;
15553;SDS011;7878;44.632;10.942;2023-02-23T16:28:41;57.00;;;35.63;;
15553;SDS011;7878;44.632;10.942;2023-02-23T16:31:09;52.53;;;36.23;;
15553;SDS011;7878;44.632;10.942;2023-02-23T16:36:18;60.87;;;35.73;;
15553;SDS011;7878;44.632;10.942;2023-02-23T16:39:01;60.93;;;38.37;;
15553;SDS011;7878;44.632;10.942;2023-02-23T16:41:31;54.63;;;35.57;;
15553;SDS011;7878;44.632;10.942;2023-02-23T16:44:02;53.60;;;34.17;;
15553;SDS011;7878;44.632;10.942;2023-02-23T16:46:47;54.57;;;35.67;;
15553;SDS011;7878;44.632;10.942;2023-02-23T16:49:21;63.03;;;36.73;;
15553;SDS011;7878;44.632;10.942;2023-02-23T16:51:49;55.80;;;36.03;;
15553;SDS011;7878;44.632;10.942;2023-02-23T16:54:15;62.63;;;39.33;;
15553;SDS011;7878;44.632;10.942;2023-02-23T16:56:41;62.80;;;36.33;;
15553;SDS011;7878;44.632;10.942;2023-02-23T16:59:08;55.23;;;36.33;;
15553;SDS011;7878;44.632;10.942;2023-02-23T17:01:40;61.73;;;36.97;;
15553;SDS011;7878;44.632;10.942;2023-02-23T17:04:12;58.77;;;37.20;;
15553;SDS011;7878;44.632;10.942;2023-02-23T17:06:39;61.23;;;37.43;;
15553;SDS011;7878;44.632;10.942;2023-02-23T17:09:08;63.60;;;37.53;;
15553;SDS011;7878;44.632;10.942;2023-02-23T17:11:34;54.97;;;37.07;;
15553;SDS011;7878;44.632;10.942;2023-02-23T17:14:00;68.37;;;37.73;;
15553;SDS011;7878;44.632;10.942;2023-02-23T17:16:26;61.70;;;36.80;;